Time;durP1;ratioP1;P1;durP2;ratioP2;P2;SDS_P1;SDS_P2;PMS_P1;PMS_P2;Temp;Humidity;BMP_temperature;BMP_pressure;BME280_temperature;BME280_humidity;BME280_pressure;Samples;Min_cycle;Max_cycle;Signal;HPM_P1;HPM_P2
2023/04/13 00:01:58;;;;;;;2.67;1.60;;;;;;;7.69;62.05;99678.47;4935768;28;97634;-51
2023/04/13 00:04:25;;;;;;;3.17;2.03;;;;;;;7.68;62.06;99674.22;4938176;28;97056;-51
2023/04/13 00:06:51;;;;;;;1.90;1.80;;;;;;;7.63;61.92;99666.75;4939001;28;97346;-54
2023/04/13 00:09:17;;;;;;;2.13;1.80;;;;;;;7.58;61.88;99663.50;4935785;28;96757;-50
2023/04/13 00:11:43;;;;;;;1.73;1.63;;;;;;;7.53;62.14;99658.75;4936387;28;97396;-52
2023/04/13 00:14:09;;;;;;;3.10;1.73;;;;;;;7.52;62.08;99651.06;4935347;28;96933;-54
2023/04/13 00:16:34;;;;;;;1.77;1.67;;;;;;;7.51;61.82;99660.53;4934999;28;97318;-51
2023/04/13 00:19:00;;;;;;;8.53;2.70;;;;;;;7.48;62.07;99645.09;4935196;28;96724;-51
2023/04/13 00:21:26;;;;;;;3.37;2.80;;;;;;;7.46;61.85;99648.31;4934555;28;96662;-51
2023/04/13 00:23:52;;;;;;;3.40;2.50;;;;;;;7.42;61.74;99658.78;4935099;28;96987;-51
2023/04/13 00:26:20;;;;;;;4.30;3.10;;;;;;;7.39;62.01;99648.81;4933635;28;96987;-53
2023/04/13 00:28:46;;;;;;;2.67;2.47;;;;;;;7.30;61.88;99646.28;4933985;28;97489;-52
2023/04/13 00:31:11;;;;;;;3.63;3.20;;;;;;;7.27;62.03;99647.28;4934130;28;96688;-53
2023/04/13 00:33:37;;;;;;;3.77;2.70;;;;;;;7.25;61.80;99643.56;4934279;28;97254;-52
2023/04/13 00:36:02;;;;;;;2.90;2.70;;;;;;;7.25;62.33;99652.50;4937634;28;97085;-52
2023/04/13 00:38:28;;;;;;;2.90;2.70;;;;;;;7.23;62.24;99652.22;4933835;28;97353;-54
2023/04/13 00:40:54;;;;;;;3.73;3.27;;;;;;;7.20;62.03;99647.78;4933954;28;97196;-54
2023/04/13 00:43:20;;;;;;;2.80;2.60;;;;;;;7.18;61.92;99641.28;4933417;28;98835;-53
2023/04/13 00:45:46;;;;;;;3.00;2.70;;;;;;;7.18;61.87;99649.50;4934028;28;97307;-53
2023/04/13 00:48:12;;;;;;;4.83;2.83;;;;;;;7.14;61.75;99643.53;4934497;28;99398;-51
2023/04/13 00:50:38;;;;;;;7.37;3.20;;;;;;;7.10;61.85;99646.47;4934610;28;97208;-52
2023/04/13 00:53:05;;;;;;;3.70;3.10;;;;;;;7.08;62.17;99656.41;4935940;28;96979;-51
2023/04/13 00:55:31;;;;;;;2.67;2.43;;;;;;;7.04;62.51;99644.97;4935832;28;97301;-52
2023/04/13 00:57:58;;;;;;;4.80;2.97;;;;;;;6.97;62.22;99637.97;4933203;28;97291;-51
2023/04/13 01:00:26;;;;;;;3.13;2.90;;;;;;;6.97;62.72;99637.25;4932831;28;97124;-51
2023/04/13 01:02:52;;;;;;;8.37;3.00;;;;;;;6.94;62.36;99638.97;4935322;28;97009;-52
2023/04/13 01:05:18;;;;;;;9.77;3.57;;;;;;;6.88;62.44;99630.00;4933518;28;96908;-50
2023/04/13 01:08:07;;;;;;;5.87;3.33;;;;;;;6.88;63.11;99637.47;4933885;28;96866;-52
2023/04/13 01:10:55;;;;;;;5.87;3.57;;;;;;;6.88;62.82;99637.47;4934407;28;97231;-53
2023/04/13 01:13:55;;;;;;;4.83;2.90;;;;;;;6.90;62.68;99637.72;4935504;28;97386;-50
2023/04/13 01:16:28;;;;;;;3.93;2.97;;;;;;;6.91;62.35;99639.97;4931555;28;97337;-51
2023/04/13 01:18:55;;;;;;;3.97;3.10;;;;;;;6.92;62.59;99641.47;4937845;28;97289;-51
2023/04/13 01:21:24;;;;;;;4.57;2.93;;;;;;;6.93;62.62;99645.69;4942283;28;97418;-51
2023/04/13 01:24:17;;;;;;;3.00;2.77;;;;;;;6.91;62.58;99642.69;4939263;28;96748;-52
2023/04/13 01:26:49;;;;;;;3.77;3.20;;;;;;;6.92;62.40;99643.44;4940947;28;97452;-55
2023/04/13 01:29:14;;;;;;;4.23;3.40;;;;;;;6.90;62.12;99645.91;4937766;28;96612;-52
2023/04/13 01:31:40;;;;;;;3.40;3.10;;;;;;;6.89;62.23;99642.44;4938095;28;97178;-51
2023/04/13 01:34:06;;;;;;;7.20;4.23;;;;;;;6.89;61.90;99638.94;4941149;28;96870;-53
2023/04/13 01:36:33;;;;;;;9.10;3.70;;;;;;;6.87;62.22;99638.69;4940128;28;98838;-51
2023/04/13 01:38:58;;;;;;;5.97;4.00;;;;;;;6.84;62.22;99637.69;4940926;28;97929;-54
2023/04/13 01:41:24;;;;;;;7.50;3.97;;;;;;;6.80;61.82;99639.91;4941097;28;97165;-52
2023/04/13 01:43:50;;;;;;;12.33;3.40;;;;;;;6.76;62.26;99636.66;4944354;28;97051;-51
2023/04/13 01:46:18;;;;;;;6.93;3.37;;;;;;;6.75;62.16;99632.41;4941396;28;97234;-50
2023/04/13 01:48:49;;;;;;;4.87;3.27;;;;;;;6.74;62.42;99631.69;4941860;28;97266;-52
2023/04/13 01:51:18;;;;;;;4.77;3.33;;;;;;;6.67;62.34;99636.88;4940342;28;96678;-52
2023/04/13 01:53:50;;;;;;;4.93;3.47;;;;;;;6.61;62.07;99630.63;4941202;28;96591;-51
2023/04/13 01:56:18;;;;;;;4.43;3.40;;;;;;;6.58;62.20;99629.63;4936856;28;96800;-51
2023/04/13 01:58:48;;;;;;;5.93;3.47;;;;;;;6.60;62.34;99627.16;4938869;28;97656;-56
2023/04/13 02:01:14;;;;;;;8.10;3.83;;;;;;;6.59;62.09;99633.09;4939742;28;96780;-51
2023/04/13 02:03:41;;;;;;;4.50;3.67;;;;;;;6.60;62.14;99623.66;4939100;28;97116;-52
2023/04/13 02:06:08;;;;;;;4.93;4.00;;;;;;;6.59;62.28;99616.72;4937441;28;97095;-50
2023/04/13 02:08:35;;;;;;;5.17;3.73;;;;;;;6.58;62.21;99626.88;4939416;28;97076;-53
2023/04/13 02:11:02;;;;;;;4.83;3.10;;;;;;;6.57;62.19;99625.41;4941620;28;97134;-51
2023/04/13 02:13:28;;;;;;;7.97;3.53;;;;;;;6.57;62.31;99628.16;4946719;28;97664;-52
2023/04/13 02:15:54;;;;;;;5.57;3.23;;;;;;;6.56;62.12;99636.81;4941089;28;97318;-52
2023/04/13 02:18:20;;;;;;;6.17;3.73;;;;;;;6.57;62.03;99624.66;4941746;28;97320;-51
2023/04/13 02:20:46;;;;;;;4.40;3.47;;;;;;;6.54;62.14;99622.88;4940333;28;97263;-52
2023/04/13 02:23:15;;;;;;;8.20;3.73;;;;;;;6.56;62.00;99625.88;4941455;28;96641;-50
2023/04/13 02:25:42;;;;;;;7.17;4.13;;;;;;;6.54;62.32;99625.63;4937698;28;96886;-53
2023/04/13 02:28:08;;;;;;;6.30;3.67;;;;;;;6.54;62.76;99626.38;4939891;28;97772;-54
2023/04/13 02:30:34;;;;;;;3.90;3.20;;;;;;;6.56;62.80;99629.38;4936359;28;97321;-52
2023/04/13 02:32:59;;;;;;;5.30;4.20;;;;;;;6.56;62.23;99631.34;4935324;28;97010;-54
2023/04/13 02:35:24;;;;;;;6.57;4.27;;;;;;;6.57;62.18;99632.84;4938183;28;97368;-52
2023/04/13 02:37:50;;;;;;;4.93;3.50;;;;;;;6.57;62.09;99630.13;4935056;28;97054;-52
2023/04/13 02:40:15;;;;;;;5.63;3.83;;;;;;;6.57;62.37;99635.59;4937872;28;97037;-50
2023/04/13 02:42:41;;;;;;;4.47;3.60;;;;;;;6.61;62.46;99636.84;4936754;28;97065;-51
2023/04/13 02:45:11;;;;;;;10.03;3.97;;;;;;;6.61;62.37;99630.63;4936052;28;96937;-50
2023/04/13 02:47:37;;;;;;;4.30;3.90;;;;;;;6.60;62.58;99629.13;4936555;28;97829;-51
2023/04/13 02:50:03;;;;;;;7.23;4.53;;;;;;;6.59;62.94;99627.66;4935236;28;97803;-53
2023/04/13 02:52:28;;;;;;;7.43;4.00;;;;;;;6.59;62.59;99627.66;4934658;28;96810;-52
2023/04/13 02:54:54;;;;;;;7.47;4.60;;;;;;;6.61;62.74;99625.16;4935252;28;96821;-52
2023/04/13 02:57:21;;;;;;;8.10;3.77;;;;;;;6.63;62.59;99630.88;4934183;28;96868;-51
2023/04/13 02:59:47;;;;;;;9.80;4.33;;;;;;;6.66;62.56;99621.72;4934716;28;97037;-51
2023/04/13 03:02:12;;;;;;;7.23;4.27;;;;;;;6.64;62.58;99630.38;4933703;28;96679;-51
2023/04/13 03:04:38;;;;;;;4.37;3.60;;;;;;;6.63;62.54;99617.22;4934746;28;97249;-51
2023/04/13 03:07:06;;;;;;;7.10;4.53;;;;;;;6.61;62.44;99620.47;4934428;28;97245;-51
2023/04/13 03:09:32;;;;;;;8.47;4.40;;;;;;;6.60;62.50;99618.94;4936528;28;97152;-50
2023/04/13 03:11:57;;;;;;;9.80;4.70;;;;;;;6.59;62.26;99616.72;4935866;28;97016;-54
2023/04/13 03:14:22;;;;;;;4.60;4.10;;;;;;;6.58;62.63;99615.97;4937677;28;97100;-53
2023/04/13 03:16:48;;;;;;;6.10;3.70;;;;;;;6.57;62.68;99613.72;4937047;28;97175;-51
2023/04/13 03:19:15;;;;;;;4.47;3.70;;;;;;;6.57;62.65;99614.47;4935981;28;97267;-51
2023/04/13 03:21:41;;;;;;;4.43;3.87;;;;;;;6.53;62.48;99613.94;4935474;28;97847;-51
2023/04/13 03:24:07;;;;;;;7.13;4.23;;;;;;;6.54;62.31;99620.16;4934862;28;96958;-51
2023/04/13 03:26:33;;;;;;;6.27;4.10;;;;;;;6.53;62.52;99613.94;4935960;28;98041;-51
2023/04/13 03:28:58;;;;;;;7.37;4.70;;;;;;;6.52;62.71;99617.94;4933367;28;97088;-53
2023/04/13 03:31:24;;;;;;;6.43;3.77;;;;;;;6.51;62.54;99616.41;4938264;28;96989;-50
2023/04/13 03:33:49;;;;;;;6.07;4.40;;;;;;;6.48;62.57;99616.66;4936904;28;97082;-51
2023/04/13 03:36:15;;;;;;;5.40;4.27;;;;;;;6.44;62.73;99627.81;4935350;28;97415;-55
2023/04/13 03:38:40;;;;;;;6.73;4.57;;;;;;;6.45;62.69;99629.31;4936671;28;97593;-50
2023/04/13 03:41:06;;;;;;;5.93;4.20;;;;;;;6.44;62.62;99625.09;4935418;28;97487;-55
2023/04/13 03:43:32;;;;;;;4.03;3.63;;;;;;;6.47;62.88;99626.06;4936127;28;97045;-52
2023/04/13 03:45:57;;;;;;;10.57;4.07;;;;;;;6.46;63.03;99619.13;4938258;28;99286;-51
2023/04/13 03:48:22;;;;;;;5.93;4.50;;;;;;;6.44;62.71;99616.91;4935093;28;97168;-50
2023/04/13 03:50:48;;;;;;;8.70;4.03;;;;;;;6.44;62.47;99627.81;4932443;28;97867;-55
2023/04/13 03:53:13;;;;;;;5.90;3.80;;;;;;;6.44;62.79;99621.59;4933833;28;96768;-53
2023/04/13 03:55:38;;;;;;;5.83;3.93;;;;;;;6.42;62.90;99624.81;4933754;28;96881;-53
2023/04/13 03:58:04;;;;;;;7.77;4.63;;;;;;;6.42;62.48;99629.53;4934376;28;97086;-52
2023/04/13 04:00:29;;;;;;;6.97;4.30;;;;;;;6.40;62.68;99621.81;4935480;28;97479;-51
2023/04/13 04:02:55;;;;;;;8.07;4.37;;;;;;;6.42;63.04;99621.34;4935209;28;97199;-52
2023/04/13 04:05:20;;;;;;;8.60;4.37;;;;;;;6.43;62.79;99631.78;4934440;28;98474;-51
2023/04/13 04:07:46;;;;;;;5.43;4.17;;;;;;;6.43;62.71;99620.09;4936496;28;97749;-52
2023/04/13 04:10:11;;;;;;;4.50;4.07;;;;;;;6.46;62.49;99627.31;4933989;28;96676;-51
2023/04/13 04:12:36;;;;;;;6.13;4.10;;;;;;;6.46;62.62;99624.59;4939563;28;96814;-50
2023/04/13 04:15:04;;;;;;;6.23;3.70;;;;;;;6.49;62.70;99626.34;4933618;28;97243;-51
2023/04/13 04:17:29;;;;;;;5.80;3.97;;;;;;;6.51;62.86;99623.88;4933924;28;97173;-54
2023/04/13 04:19:55;;;;;;;4.07;3.40;;;;;;;6.52;62.61;99617.16;4933015;28;97150;-51
2023/04/13 04:22:21;;;;;;;4.03;3.63;;;;;;;6.53;62.84;99624.16;4936895;28;97197;-51
2023/04/13 04:24:46;;;;;;;4.60;3.60;;;;;;;6.51;62.70;99621.88;4934751;28;97360;-50
2023/04/13 04:27:13;;;;;;;3.90;3.07;;;;;;;6.59;62.90;99633.09;4931492;28;96752;-50
2023/04/13 04:29:38;;;;;;;4.83;3.70;;;;;;;6.60;62.81;99631.84;4935100;28;97086;-53
2023/04/13 04:32:09;;;;;;;3.80;3.27;;;;;;;6.63;63.23;99637.09;4935213;28;97270;-50
2023/04/13 04:34:35;;;;;;;5.47;4.00;;;;;;;6.65;63.02;99644.81;4936457;28;97003;-51
2023/04/13 04:37:04;;;;;;;8.57;4.67;;;;;;;6.66;62.61;99627.19;4937239;28;96773;-52
2023/04/13 04:39:33;;;;;;;3.90;3.33;;;;;;;6.71;63.08;99634.66;4932247;28;96736;-55
2023/04/13 04:42:02;;;;;;;8.10;3.40;;;;;;;6.77;63.20;99641.63;4933781;28;96803;-51
2023/04/13 04:44:32;;;;;;;6.40;3.83;;;;;;;6.86;63.55;99637.22;4934938;28;97998;-53
2023/04/13 04:46:58;;;;;;;5.30;3.00;;;;;;;6.92;63.16;99640.72;4933453;28;98335;-52
2023/04/13 04:49:26;;;;;;;4.40;3.60;;;;;;;7.00;63.10;99645.22;4935448;28;96983;-51
2023/04/13 04:51:53;;;;;;;3.90;3.50;;;;;;;7.05;63.34;99649.97;4933668;28;96911;-50
2023/04/13 04:54:19;;;;;;;4.17;3.40;;;;;;;7.11;63.13;99647.22;4935630;28;97353;-53
2023/04/13 04:56:46;;;;;;;5.67;3.80;;;;;;;7.18;63.37;99647.53;4932564;28;97058;-50
2023/04/13 04:59:12;;;;;;;4.80;3.53;;;;;;;7.22;63.34;99652.75;4931527;28;96979;-53
2023/04/13 05:01:38;;;;;;;3.77;3.10;;;;;;;7.28;63.65;99654.25;4936060;28;97097;-51
2023/04/13 05:04:03;;;;;;;8.83;3.53;;;;;;;7.33;63.46;99656.25;4933241;28;97330;-52
2023/04/13 05:06:32;;;;;;;4.33;3.07;;;;;;;7.38;63.61;99658.25;4936267;28;97258;-50
2023/04/13 05:08:59;;;;;;;3.83;3.43;;;;;;;7.46;63.57;99664.00;4933808;28;96796;-52
2023/04/13 05:11:25;;;;;;;4.53;3.30;;;;;;;7.52;63.83;99665.50;4932959;28;97097;-51
2023/04/13 05:13:51;;;;;;;3.23;2.70;;;;;;;7.60;63.76;99665.03;4933159;28;97328;-51
2023/04/13 05:16:17;;;;;;;3.90;3.13;;;;;;;7.66;63.84;99655.56;4933276;28;97144;-51
2023/04/13 05:18:44;;;;;;;2.97;2.70;;;;;;;7.77;63.67;99665.78;4936769;28;96722;-53
2023/04/13 05:21:09;;;;;;;7.73;2.83;;;;;;;7.82;63.61;99662.31;4936020;28;96884;-51
2023/04/13 05:23:34;;;;;;;3.63;2.60;;;;;;;7.87;63.62;99659.56;4933936;28;97271;-54
2023/04/13 05:26:00;;;;;;;3.87;2.47;;;;;;;7.92;63.79;99660.81;4936486;28;97140;-50
2023/04/13 05:28:25;;;;;;;6.43;3.00;;;;;;;7.97;63.65;99663.53;4933495;28;97001;-51
2023/04/13 05:30:51;;;;;;;2.20;2.00;;;;;;;8.03;63.58;99671.78;4933991;28;97385;-51
2023/04/13 05:33:16;;;;;;;2.80;2.60;;;;;;;8.06;63.80;99662.56;4937015;28;97181;-52
2023/04/13 05:35:42;;;;;;;3.00;2.30;;;;;;;8.10;63.69;99666.53;4936269;28;97113;-51
2023/04/13 05:38:08;;;;;;;4.07;2.97;;;;;;;8.14;64.16;99660.81;4937937;28;97195;-52
2023/04/13 05:40:34;;;;;;;3.37;2.67;;;;;;;8.18;63.99;99669.53;4936691;28;96785;-53
2023/04/13 05:42:59;;;;;;;2.70;1.70;;;;;;;8.23;64.10;99666.75;4933207;28;97311;-53
2023/04/13 05:45:25;;;;;;;2.33;2.13;;;;;;;8.28;63.88;99662.56;4934987;28;97694;-50
2023/04/13 05:47:51;;;;;;;3.63;1.60;;;;;;;8.35;64.10;99669.53;4932510;28;97021;-51
2023/04/13 05:50:16;;;;;;;2.00;1.47;;;;;;;8.40;64.06;99668.78;4935784;28;97411;-50
2023/04/13 05:52:42;;;;;;;1.80;1.70;;;;;;;8.46;64.04;99667.50;4935152;28;97379;-51
2023/04/13 05:55:07;;;;;;;1.67;1.57;;;;;;;8.55;64.07;99669.25;4931523;28;97088;-51
2023/04/13 05:57:33;;;;;;;1.27;1.17;;;;;;;8.63;64.19;99673.69;4934629;28;96735;-52
2023/04/13 05:59:58;;;;;;;3.00;1.20;;;;;;;8.73;64.17;99663.97;4935171;28;97017;-50
2023/04/13 06:02:25;;;;;;;1.03;1.00;;;;;;;8.82;64.22;99662.94;4935840;28;97281;-53
2023/04/13 06:04:52;;;;;;;1.10;1.10;;;;;;;8.94;64.30;99669.88;4936673;28;97044;-53
2023/04/13 06:07:18;;;;;;;1.47;0.87;;;;;;;9.07;64.37;99673.56;4937264;28;96812;-52
2023/04/13 06:09:43;;;;;;;0.80;0.80;;;;;;;9.19;64.31;99677.00;4937320;28;96791;-52
2023/04/13 06:12:09;;;;;;;0.70;0.70;;;;;;;9.27;64.30;99675.22;4937303;28;96892;-50
2023/04/13 06:14:34;;;;;;;1.67;0.80;;;;;;;9.37;64.08;99672.94;4934769;28;97044;-50
2023/04/13 06:17:00;;;;;;;0.90;0.80;;;;;;;9.43;64.29;99674.41;4938256;28;97114;-51
2023/04/13 06:19:25;;;;;;;2.13;0.70;;;;;;;9.47;64.17;99674.13;4937249;28;97090;-49
2023/04/13 06:21:51;;;;;;;1.33;0.80;;;;;;;9.49;64.20;99682.59;4936642;28;96968;-51
2023/04/13 06:24:16;;;;;;;1.23;0.50;;;;;;;9.55;64.30;99691.53;4937739;28;96673;-51
2023/04/13 06:26:42;;;;;;;1.83;0.57;;;;;;;9.59;64.11;99690.00;4941047;28;97486;-51
2023/04/13 06:29:07;;;;;;;1.63;0.90;;;;;;;9.66;64.28;99696.97;4935010;28;97100;-50
2023/04/13 06:31:33;;;;;;;0.63;0.63;;;;;;;9.77;64.16;99705.13;4938088;28;96588;-50
2023/04/13 06:33:59;;;;;;;0.70;0.60;;;;;;;9.83;64.14;99703.09;4937995;28;96984;-52
2023/04/13 06:36:24;;;;;;;3.03;0.60;;;;;;;9.90;64.18;99708.03;4944730;28;97010;-50
2023/04/13 06:38:50;;;;;;;0.53;0.50;;;;;;;9.97;64.12;99715.72;4936692;28;97531;-51
2023/04/13 06:41:16;;;;;;;1.87;0.53;;;;;;;10.09;64.26;99714.38;4935066;28;97119;-52
2023/04/13 06:43:41;;;;;;;1.37;0.70;;;;;;;10.22;64.22;99708.34;4936674;28;97017;-49
2023/04/13 06:46:06;;;;;;;0.73;0.70;;;;;;;10.32;64.17;99710.25;4934031;28;96973;-50
2023/04/13 06:48:32;;;;;;;0.60;0.43;;;;;;;10.51;64.17;99713.81;4936859;28;97153;-52
2023/04/13 06:51:00;;;;;;;0.67;0.67;;;;;;;10.73;64.23;99717.59;4937182;28;96815;-51
2023/04/13 06:53:26;;;;;;;1.10;0.70;;;;;;;10.90;63.71;99723.69;4933698;28;97155;-51
2023/04/13 06:55:51;;;;;;;1.13;0.67;;;;;;;11.01;63.70;99723.53;4938727;28;97353;-51
2023/04/13 06:58:17;;;;;;;0.97;0.53;;;;;;;11.05;63.49;99735.03;4935787;28;97581;-52
2023/04/13 07:00:43;;;;;;;0.90;0.50;;;;;;;11.07;63.54;99729.75;4937675;28;97364;-51
2023/04/13 07:03:08;;;;;;;1.63;0.70;;;;;;;11.11;63.30;99728.19;4933595;28;96830;-51
2023/04/13 07:05:34;;;;;;;3.83;0.87;;;;;;;11.15;63.34;99733.41;4933938;28;96977;-50
2023/04/13 07:07:59;;;;;;;0.80;0.60;;;;;;;11.20;63.26;99738.09;4932938;28;96858;-51
2023/04/13 07:10:24;;;;;;;1.33;0.50;;;;;;;11.27;63.22;99745.75;4937692;28;96613;-50
2023/04/13 07:12:50;;;;;;;1.47;0.93;;;;;;;11.28;62.85;99747.25;4938632;28;97291;-51
2023/04/13 07:15:15;;;;;;;0.50;0.40;;;;;;;11.28;62.75;99745.25;4934512;28;96877;-53
2023/04/13 07:17:40;;;;;;;0.60;0.40;;;;;;;11.33;62.96;99746.47;4936423;28;97322;-51
2023/04/13 07:20:07;;;;;;;1.00;0.53;;;;;;;11.38;63.07;99750.41;4933410;28;97804;-53
2023/04/13 07:22:34;;;;;;;2.70;0.47;;;;;;;11.37;63.05;99749.66;4937187;28;97203;-51
2023/04/13 07:25:00;;;;;;;3.50;0.50;;;;;;;11.41;62.82;99752.13;4935477;28;97275;-51
2023/04/13 07:27:25;;;;;;;0.70;0.57;;;;;;;11.40;62.84;99751.38;4930849;28;97018;-50
2023/04/13 07:29:51;;;;;;;0.90;0.60;;;;;;;11.39;62.69;99758.16;4937565;28;97359;-50
2023/04/13 07:32:16;;;;;;;0.70;0.47;;;;;;;11.45;62.78;99756.06;4936900;28;96696;-50
2023/04/13 07:34:42;;;;;;;1.77;0.90;;;;;;;11.53;62.66;99770.72;4937502;28;96998;-52
2023/04/13 07:37:07;;;;;;;0.77;0.30;;;;;;;11.58;62.53;99769.16;4933738;28;96632;-52
2023/04/13 07:39:33;;;;;;;1.33;0.60;;;;;;;11.62;62.30;99764.13;4935917;28;97062;-51
2023/04/13 07:41:58;;;;;;;0.50;0.47;;;;;;;11.69;62.20;99780.81;4933082;28;97176;-50
2023/04/13 07:44:24;;;;;;;0.70;0.43;;;;;;;11.74;62.34;99776.50;4936864;28;96690;-51
2023/04/13 07:46:50;;;;;;;1.87;0.43;;;;;;;11.76;62.20;99787.75;4936435;28;96903;-51
2023/04/13 07:49:15;;;;;;;2.23;0.50;;;;;;;11.76;62.00;99791.25;4933772;28;96549;-50
2023/04/13 07:51:41;;;;;;;3.90;0.73;;;;;;;11.75;61.94;99792.50;4935425;28;97138;-50
2023/04/13 07:54:06;;;;;;;0.60;0.60;;;;;;;11.72;61.98;99796.31;4936598;28;97024;-50
2023/04/13 07:56:32;;;;;;;0.60;0.50;;;;;;;11.68;61.87;99800.63;4932308;28;96873;-50
2023/04/13 07:58:57;;;;;;;1.10;0.50;;;;;;;11.68;61.96;99811.66;4934579;28;97943;-50
2023/04/13 08:01:23;;;;;;;1.10;0.50;;;;;;;11.64;62.04;99811.91;4935162;28;97220;-52
2023/04/13 08:03:49;;;;;;;1.50;0.70;;;;;;;11.62;61.82;99817.19;4935202;28;97326;-51
2023/04/13 08:06:15;;;;;;;0.97;0.40;;;;;;;11.59;61.88;99828.53;4933743;28;96971;-51
2023/04/13 08:08:40;;;;;;;1.27;0.57;;;;;;;11.53;61.79;99825.09;4937554;28;97124;-51
2023/04/13 08:11:07;;;;;;;1.23;0.43;;;;;;;11.58;62.07;99836.03;4933186;28;97233;-53
2023/04/13 08:13:32;;;;;;;0.60;0.40;;;;;;;11.62;61.96;99842.00;4935489;28;97513;-50
2023/04/13 08:15:59;;;;;;;0.67;0.50;;;;;;;11.64;62.05;99853.25;4937136;28;97265;-51
2023/04/13 08:18:26;;;;;;;1.30;0.47;;;;;;;11.62;61.76;99852.28;4935221;28;97030;-51
2023/04/13 08:20:53;;;;;;;1.20;0.50;;;;;;;11.65;62.19;99854.75;4935595;28;97706;-50
2023/04/13 08:23:19;;;;;;;3.13;0.77;;;;;;;11.73;62.17;99852.91;4934549;28;96763;-52
2023/04/13 08:25:44;;;;;;;0.70;0.40;;;;;;;11.82;61.97;99862.81;4933554;28;96794;-51
2023/04/13 08:28:09;;;;;;;1.17;0.40;;;;;;;11.91;61.80;99867.97;4935233;28;97360;-50
2023/04/13 08:30:35;;;;;;;0.50;0.30;;;;;;;11.98;61.74;99862.63;4933843;28;96800;-54
2023/04/13 08:33:01;;;;;;;0.40;0.30;;;;;;;12.06;61.94;99862.03;4933285;28;96838;-51
2023/04/13 08:35:27;;;;;;;2.70;0.40;;;;;;;12.26;61.93;99864.25;4936705;28;97089;-51
2023/04/13 08:37:52;;;;;;;0.90;0.60;;;;;;;12.43;61.79;99859.25;4936401;28;97462;-51
2023/04/13 08:40:19;;;;;;;0.50;0.47;;;;;;;12.46;61.32;99858.97;4934615;28;101435;-51
2023/04/13 08:42:45;;;;;;;0.80;0.40;;;;;;;12.63;61.52;99862.19;4935287;28;97047;-51
2023/04/13 08:45:12;;;;;;;0.60;0.60;;;;;;;12.68;60.94;99858.63;4934840;28;96902;-51
2023/04/13 08:47:39;;;;;;;2.70;0.43;;;;;;;12.91;61.00;99861.75;4933559;28;97155;-52
2023/04/13 08:50:06;;;;;;;0.60;0.50;;;;;;;13.12;61.09;99870.97;4936813;28;97678;-51
2023/04/13 08:52:33;;;;;;;0.70;0.43;;;;;;;13.37;60.64;99875.03;4932866;28;96908;-49
2023/04/13 08:55:01;;;;;;;0.60;0.50;;;;;;;13.58;60.52;99871.63;4937615;28;97184;-50
2023/04/13 08:57:28;;;;;;;0.90;0.50;;;;;;;13.72;60.22;99875.88;4935621;28;96921;-50
2023/04/13 08:59:55;;;;;;;0.70;0.40;;;;;;;13.77;59.99;99875.03;4930579;28;96815;-51
2023/04/13 09:02:27;;;;;;;1.53;0.50;;;;;;;13.93;59.88;99869.19;4933609;28;96784;-50
2023/04/13 09:04:56;;;;;;;0.83;0.50;;;;;;;14.06;59.71;99874.69;4935130;28;96956;-50
2023/04/13 09:07:26;;;;;;;1.67;0.43;;;;;;;14.25;59.51;99886.34;4932835;28;97501;-51
2023/04/13 09:09:59;;;;;;;1.03;0.50;;;;;;;14.49;59.01;99879.78;4933389;28;96758;-50
2023/04/13 09:12:26;;;;;;;0.90;0.50;;;;;;;14.57;58.46;99885.41;4936149;28;97125;-50
2023/04/13 09:14:52;;;;;;;0.60;0.40;;;;;;;14.50;58.53;99878.53;4932021;28;96927;-52
2023/04/13 09:17:36;;;;;;;0.90;0.53;;;;;;;14.53;58.25;99885.75;4932195;28;97183;-51
2023/04/13 09:20:21;;;;;;;0.50;0.50;;;;;;;14.74;56.32;99886.50;4933379;28;96645;-53
2023/04/13 09:22:48;;;;;;;0.83;0.50;;;;;;;14.73;58.42;99904.41;4937612;28;97149;-50
2023/04/13 09:25:24;;;;;;;4.70;0.60;;;;;;;14.76;57.29;99908.88;4935770;28;97067;-51
2023/04/13 09:27:53;;;;;;;1.13;0.50;;;;;;;15.01;58.17;99903.72;4932869;28;97435;-50
2023/04/13 09:30:23;;;;;;;0.57;0.57;;;;;;;15.00;56.51;99902.97;4933332;28;97331;-51
2023/04/13 09:33:06;;;;;;;3.33;0.90;;;;;;;15.06;54.11;99913.19;4934183;28;97294;-50
2023/04/13 09:35:33;;;;;;;0.80;0.50;;;;;;;15.03;57.30;99918.53;4935501;28;96812;-50
2023/04/13 09:38:01;;;;;;;0.70;0.70;;;;;;;14.92;56.80;99913.25;4930678;28;96837;-54
2023/04/13 09:40:27;;;;;;;1.10;1.00;;;;;;;14.71;56.91;99926.34;4939525;28;97212;-50
2023/04/13 09:43:01;;;;;;;0.50;0.50;;;;;;;14.58;54.99;99914.56;4938667;28;96626;-51
2023/04/13 09:45:37;;;;;;;1.47;0.80;;;;;;;14.69;55.44;99930.94;4939102;28;96755;-53
2023/04/13 09:48:05;;;;;;;0.80;0.80;;;;;;;14.78;56.95;99931.22;4936720;28;98588;-51
2023/04/13 09:50:32;;;;;;;2.40;0.70;;;;;;;14.73;56.89;99939.66;4937037;28;97282;-53
2023/04/13 09:53:06;;;;;;;0.70;0.57;;;;;;;14.67;56.40;99948.09;4935563;28;97107;-50
2023/04/13 09:55:32;;;;;;;0.60;0.40;;;;;;;14.60;56.93;99950.75;4939796;28;97202;-51
2023/04/13 09:58:12;;;;;;;1.10;0.50;;;;;;;14.55;56.56;99960.69;4934158;28;96942;-50
2023/04/13 10:00:41;;;;;;;0.50;0.50;;;;;;;14.63;57.34;99955.25;4936476;28;97662;-50
2023/04/13 10:03:12;;;;;;;2.37;0.60;;;;;;;14.82;57.05;99964.88;4938771;28;97100;-50
2023/04/13 10:05:39;;;;;;;0.90;0.80;;;;;;;14.93;57.04;99967.38;4936721;28;97347;-51
2023/04/13 10:08:05;;;;;;;0.50;0.50;;;;;;;14.93;56.83;99972.91;4935497;28;96818;-50
2023/04/13 10:10:34;;;;;;;1.07;0.50;;;;;;;14.92;56.70;99968.66;4936922;28;96622;-54
2023/04/13 10:13:06;;;;;;;0.77;0.77;;;;;;;14.95;56.30;99975.16;4936289;28;97072;-50
2023/04/13 10:15:57;;;;;;;0.50;0.50;;;;;;;14.92;55.35;99973.44;4935466;28;97252;-50
2023/04/13 10:18:26;;;;;;;0.90;0.70;;;;;;;14.84;56.31;99962.31;4936752;28;97040;-51
2023/04/13 10:20:53;;;;;;;0.70;0.70;;;;;;;14.79;55.49;99963.16;4935981;28;98310;-49
2023/04/13 10:23:20;;;;;;;0.50;0.50;;;;;;;14.76;55.87;99964.25;4935240;28;96694;-50
2023/04/13 10:25:53;;;;;;;0.60;0.57;;;;;;;14.82;54.17;99967.63;4940584;28;97566;-51
2023/04/13 10:28:20;;;;;;;0.73;0.73;;;;;;;14.88;55.85;99967.50;4937889;28;97174;-50
2023/04/13 10:30:51;;;;;;;0.97;0.80;;;;;;;15.03;54.67;99967.63;4936963;28;97642;-51
2023/04/13 10:33:17;;;;;;;0.97;0.70;;;;;;;15.14;55.59;99970.16;4932681;28;96721;-50
2023/04/13 10:35:54;;;;;;;1.20;1.10;;;;;;;15.21;53.56;99979.81;4938321;28;97319;-52
2023/04/13 10:38:20;;;;;;;1.00;1.00;;;;;;;15.28;54.84;99968.06;4936508;28;97202;-50
2023/04/13 10:40:46;;;;;;;0.80;0.80;;;;;;;15.39;54.96;99970.56;4936816;28;97263;-51
2023/04/13 10:43:23;;;;;;;1.07;0.80;;;;;;;15.56;54.94;99970.91;4937330;28;97152;-50
2023/04/13 10:45:48;;;;;;;1.03;0.80;;;;;;;15.65;54.40;99984.28;4939308;28;97795;-51
2023/04/13 10:48:22;;;;;;;0.87;0.87;;;;;;;15.77;53.13;99980.66;4937881;28;99394;-51
2023/04/13 10:50:57;;;;;;;2.20;0.90;;;;;;;15.92;51.76;99974.50;4935671;28;97401;-52
2023/04/13 10:53:23;;;;;;;3.70;1.03;;;;;;;16.02;53.64;99985.81;4934184;28;97490;-50
2023/04/13 10:55:49;;;;;;;0.77;0.77;;;;;;;15.97;53.20;99981.16;4937561;28;97210;-50
2023/04/13 10:58:18;;;;;;;1.33;1.00;;;;;;;15.80;53.30;99987.16;4932623;28;96856;-50
2023/04/13 11:00:47;;;;;;;0.80;0.80;;;;;;;15.69;53.44;99993.75;4934578;28;97259;-54
2023/04/13 11:03:14;;;;;;;0.80;0.80;;;;;;;15.71;53.51;99993.94;4932229;28;96786;-52
2023/04/13 11:05:39;;;;;;;1.00;0.80;;;;;;;15.68;53.33;99988.75;4936494;28;96602;-50
2023/04/13 11:08:05;;;;;;;1.07;0.60;;;;;;;15.66;53.33;100005.91;4937507;28;97584;-49
2023/04/13 11:10:31;;;;;;;0.83;0.83;;;;;;;15.64;53.14;100005.72;4938207;28;96764;-54
2023/04/13 11:12:57;;;;;;;0.70;0.70;;;;;;;15.66;53.10;100005.19;4933539;28;97019;-52
2023/04/13 11:15:27;;;;;;;1.00;0.80;;;;;;;15.69;52.61;100010.38;4935354;28;96792;-51
2023/04/13 11:17:58;;;;;;;1.87;1.10;;;;;;;15.67;52.36;100012.22;4932903;28;97381;-51
2023/04/13 11:20:37;;;;;;;1.53;0.67;;;;;;;15.61;51.91;100012.38;4946434;28;99461;-50
2023/04/13 11:23:05;;;;;;;0.70;0.70;;;;;;;15.59;53.04;100017.72;4936639;28;96666;-52
2023/04/13 11:25:32;;;;;;;1.17;0.83;;;;;;;15.61;53.09;100022.72;4936381;28;96988;-50
2023/04/13 11:28:00;;;;;;;0.83;0.80;;;;;;;15.61;53.16;100031.03;4933778;28;97005;-51
2023/04/13 11:30:26;;;;;;;1.20;0.80;;;;;;;15.61;53.14;100031.03;4935265;28;96841;-53
2023/04/13 11:32:52;;;;;;;0.90;0.77;;;;;;;15.60;53.08;100043.38;4936448;28;96862;-51
2023/04/13 11:35:20;;;;;;;0.70;0.70;;;;;;;15.57;53.12;100042.44;4935549;28;96930;-51
2023/04/13 11:37:48;;;;;;;0.73;0.73;;;;;;;15.54;53.08;100049.09;4935433;28;96955;-52